Time;durP1;ratioP1;P1;durP2;ratioP2;P2;SDS_P1;SDS_P2;PMS_P1;PMS_P2;Temp;Humidity;BMP_temperature;BMP_pressure;BME280_temperature;BME280_humidity;BME280_pressure;Samples;Min_cycle;Max_cycle;Signal;HPM_P1;HPM_P2
2023/04/03 00:01:38;;;;;;;6.82;1.70;;;2.00;99.90;;;;;;5013513;28;20044;-81
2023/04/03 00:04:05;;;;;;;6.53;1.80;;;3.30;99.90;;;;;;5029026;28;20041;-81
2023/04/03 00:06:31;;;;;;;4.95;1.77;;;3.20;99.90;;;;;;5018739;28;20033;-80
2023/04/03 00:08:57;;;;;;;4.85;1.52;;;2.00;99.90;;;;;;5027369;28;20124;-80
2023/04/03 00:11:23;;;;;;;5.55;1.70;;;2.80;99.90;;;;;;5045290;28;20111;-82
2023/04/03 00:13:49;;;;;;;5.60;1.80;;;2.10;99.90;;;;;;5012374;28;20036;-81
2023/04/03 00:16:14;;;;;;;5.80;1.70;;;3.50;99.90;;;;;;5043499;28;20052;-81
2023/04/03 00:18:40;;;;;;;6.65;1.88;;;2.20;99.90;;;;;;5044084;28;20456;-81
2023/04/03 00:21:06;;;;;;;6.50;1.95;;;1.90;99.90;;;;;;5044903;28;20052;-81
2023/04/03 00:23:34;;;;;;;7.35;2.03;;;3.10;99.90;;;;;;5046042;28;20401;-81
2023/04/03 00:26:00;;;;;;;4.40;1.60;;;3.40;99.90;;;;;;5027647;28;20542;-81
2023/04/03 00:28:26;;;;;;;6.60;1.80;;;1.20;99.90;;;;;;5029469;28;20102;-81
2023/04/03 00:30:52;;;;;;;6.32;1.83;;;1.90;99.90;;;;;;5017844;28;20044;-81
2023/04/03 00:33:21;;;;;;;5.95;1.73;;;1.90;99.90;;;;;;5027349;28;20500;-81
2023/04/03 00:35:48;;;;;;;7.78;1.70;;;3.40;99.90;;;;;;5043668;28;20056;-81
2023/04/03 00:38:14;;;;;;;5.75;1.80;;;2.60;99.90;;;;;;5061528;28;20044;-81
2023/04/03 00:40:44;;;;;;;6.60;2.10;;;1.90;99.90;;;;;;5043496;28;20047;-81
2023/04/03 00:43:19;;;;;;;5.07;1.73;;;2.40;99.90;;;;;;5060551;28;20048;-81
2023/04/03 00:45:48;;;;;;;4.15;1.60;;;1.80;99.90;;;;;;5057708;28;20040;-81
2023/04/03 00:48:45;;;;;;;4.72;1.50;;;1.80;99.90;;;;;;5062370;28;20110;-82
2023/04/03 00:51:22;;;;;;;8.75;1.90;;;1.70;99.90;;;;;;5052241;28;20553;-81
2023/04/03 00:53:58;;;;;;;5.93;1.60;;;1.70;99.90;;;;;;5041422;28;20041;-81
2023/04/03 00:56:27;;;;;;;6.85;1.90;;;1.70;99.90;;;;;;5058614;28;20116;-81
2023/04/03 00:59:05;;;;;;;7.30;1.80;;;1.70;99.90;;;;;;5061188;28;20110;-82
2023/04/03 01:01:31;;;;;;;7.80;1.77;;;1.70;99.90;;;;;;5059166;28;20040;-81
2023/04/03 01:03:59;;;;;;;6.75;1.80;;;1.70;99.90;;;;;;5061749;28;20402;-81
2023/04/03 01:06:30;;;;;;;7.03;1.70;;;1.60;99.90;;;;;;5043477;28;20060;-81
2023/04/03 01:08:56;;;;;;;6.57;1.73;;;1.60;99.90;;;;;;5043102;28;20056;-81
2023/04/03 01:11:22;;;;;;;5.70;1.77;;;1.60;99.90;;;;;;5042804;28;20041;-81
2023/04/03 01:13:49;;;;;;;6.07;1.88;;;1.60;99.90;;;;;;5060035;28;20093;-82
2023/04/03 01:16:14;;;;;;;9.55;2.00;;;2.60;99.90;;;;;;5042482;28;20529;-81
2023/04/03 01:18:42;;;;;;;7.78;1.80;;;3.20;99.90;;;;;;5061201;28;20075;-82
2023/04/03 01:21:13;;;;;;;8.98;2.38;;;1.50;99.90;;;;;;5045849;28;20060;-81
2023/04/03 01:23:44;;;;;;;6.15;1.60;;;1.50;99.90;;;;;;5046369;28;20037;-82
2023/04/03 01:26:11;;;;;;;8.13;2.17;;;1.50;99.90;;;;;;5044123;28;20181;-82
2023/04/03 01:28:37;;;;;;;8.30;1.70;;;1.40;99.90;;;;;;5044949;28;20415;-81
2023/04/03 01:31:21;;;;;;;5.55;1.88;;;1.40;99.90;;;;;;5047846;28;20028;-81
2023/04/03 01:33:47;;;;;;;7.70;2.08;;;1.40;99.90;;;;;;5065341;28;20501;-81
2023/04/03 01:36:24;;;;;;;8.10;2.03;;;1.40;99.90;;;;;;5061101;28;20033;-81
2023/04/03 01:38:50;;;;;;;8.25;2.15;;;2.30;99.90;;;;;;5047440;28;20478;-82
2023/04/03 01:41:16;;;;;;;8.43;1.80;;;2.00;99.90;;;;;;5062223;28;20089;-82
2023/04/03 01:43:43;;;;;;;10.00;2.20;;;1.30;99.90;;;;;;5063721;28;20052;-82
2023/04/03 01:46:09;;;;;;;6.82;2.08;;;1.30;99.90;;;;;;5030726;28;20040;-81
2023/04/03 01:48:34;;;;;;;8.27;2.35;;;1.30;99.90;;;;;;5046249;28;20159;-81
2023/04/03 01:51:00;;;;;;;8.32;2.05;;;1.30;99.90;;;;;;5064481;28;20032;-81
2023/04/03 01:53:26;;;;;;;8.13;1.92;;;2.50;99.90;;;;;;5061015;28;20039;-81
2023/04/03 01:55:52;;;;;;;7.60;2.20;;;1.50;99.90;;;;;;5048297;28;20055;-81
2023/04/03 01:58:18;;;;;;;8.00;2.00;;;1.20;99.90;;;;;;5062808;28;20413;-81
2023/04/03 02:00:43;;;;;;;8.75;2.17;;;1.20;99.90;;;;;;5045900;28;20118;-81
2023/04/03 02:03:09;;;;;;;9.45;2.00;;;1.70;99.90;;;;;;5044618;28;20049;-81
2023/04/03 02:05:35;;;;;;;7.60;2.15;;;1.20;99.90;;;;;;5061720;28;20047;-81
2023/04/03 02:08:01;;;;;;;8.70;2.10;;;2.70;99.90;;;;;;5062896;28;20467;-81
2023/04/03 02:10:26;;;;;;;8.60;2.08;;;2.00;99.90;;;;;;5032001;28;20043;-81
2023/04/03 02:12:52;;;;;;;5.32;1.90;;;1.10;99.90;;;;;;5029427;28;20048;-81
2023/04/03 02:15:18;;;;;;;9.23;2.10;;;1.10;99.90;;;;;;5048317;28;20047;-81
2023/04/03 02:17:44;;;;;;;6.72;1.90;;;1.10;99.90;;;;;;5049074;28;20493;-81
2023/04/03 02:20:10;;;;;;;6.18;2.00;;;1.80;99.90;;;;;;5062909;28;20758;-82
2023/04/03 02:22:36;;;;;;;9.80;2.53;;;1.00;99.90;;;;;;5045574;28;20052;-81
2023/04/03 02:25:02;;;;;;;6.88;2.30;;;1.00;99.90;;;;;;5044385;28;20854;-82
2023/04/03 02:27:28;;;;;;;7.03;2.30;;;1.00;99.90;;;;;;5063995;28;20520;-81
2023/04/03 02:29:54;;;;;;;8.18;2.00;;;2.50;99.90;;;;;;5046632;28;20045;-81
2023/04/03 02:32:19;;;;;;;9.85;2.20;;;0.90;99.90;;;;;;5042702;28;20097;-81
2023/04/03 02:34:45;;;;;;;6.57;1.90;;;0.90;99.90;;;;;;5063303;28;20561;-81
2023/04/03 02:37:11;;;;;;;9.93;2.20;;;0.90;99.90;;;;;;5065131;28;20040;-81
2023/04/03 02:39:37;;;;;;;8.38;2.10;;;0.80;99.90;;;;;;5047929;28;20035;-81
2023/04/03 02:42:03;;;;;;;6.78;1.80;;;1.10;99.90;;;;;;5061171;28;20064;-81
2023/04/03 02:44:29;;;;;;;8.00;2.00;;;0.80;99.90;;;;;;5062495;28;20111;-81
2023/04/03 02:46:54;;;;;;;7.95;2.20;;;0.70;99.90;;;;;;5046448;28;20541;-80
2023/04/03 02:49:20;;;;;;;10.48;2.40;;;2.20;99.90;;;;;;5046342;28;20041;-80
2023/04/03 02:51:47;;;;;;;6.43;1.90;;;0.60;99.90;;;;;;5044669;28;20089;-81
2023/04/03 02:54:13;;;;;;;9.43;2.20;;;0.60;99.90;;;;;;5064475;28;20059;-81
2023/04/03 02:56:39;;;;;;;6.38;1.90;;;0.60;99.90;;;;;;5046666;28;20069;-81
2023/04/03 02:59:05;;;;;;;10.73;2.70;;;0.60;99.90;;;;;;5028893;28;20070;-81
2023/04/03 03:01:32;;;;;;;8.05;2.20;;;1.50;99.90;;;;;;5061146;28;20121;-80
2023/04/03 03:03:59;;;;;;;9.73;2.33;;;0.70;99.90;;;;;;5047004;28;20064;-80
2023/04/03 03:06:25;;;;;;;8.43;2.40;;;0.50;99.90;;;;;;5046126;28;20055;-80
2023/04/03 03:08:51;;;;;;;7.20;1.90;;;0.50;99.90;;;;;;5047808;28;20406;-80
2023/04/03 03:11:17;;;;;;;6.07;1.83;;;0.50;99.90;;;;;;5044969;28;20033;-81
2023/04/03 03:13:43;;;;;;;6.75;1.95;;;0.50;99.90;;;;;;5063199;28;20036;-81
2023/04/03 03:16:08;;;;;;;6.90;2.40;;;0.50;99.90;;;;;;5063382;28;20051;-81
2023/04/03 03:18:35;;;;;;;7.30;2.00;;;0.40;99.90;;;;;;5062050;28;20078;-80
2023/04/03 03:21:02;;;;;;;7.68;2.30;;;0.40;99.90;;;;;;5061750;28;20041;-81
2023/04/03 03:23:30;;;;;;;6.90;1.98;;;0.30;99.90;;;;;;5043655;28;20494;-81
2023/04/03 03:26:03;;;;;;;8.52;2.25;;;0.30;99.90;;;;;;5041748;28;20051;-81
2023/04/03 03:28:29;;;;;;;7.70;1.90;;;1.80;99.90;;;;;;5063034;28;20040;-81
2023/04/03 03:30:56;;;;;;;10.85;2.45;;;0.20;99.90;;;;;;5042002;28;20559;-81
2023/04/03 03:33:21;;;;;;;9.88;2.10;;;0.20;99.90;;;;;;5029601;28;20129;-81
2023/04/03 03:35:47;;;;;;;7.93;2.35;;;0.60;99.90;;;;;;5060931;28;20075;-81
2023/04/03 03:38:13;;;;;;;8.88;2.50;;;0.20;99.90;;;;;;5045515;28;20106;-81
2023/04/03 03:40:39;;;;;;;8.48;2.30;;;0.20;99.90;;;;;;5063415;28;20469;-81
2023/04/03 03:43:05;;;;;;;9.02;2.10;;;1.10;99.90;;;;;;5059585;28;20562;-81
2023/04/03 03:45:31;;;;;;;9.73;2.30;;;0.70;99.90;;;;;;5046450;28;20060;-81
2023/04/03 03:47:56;;;;;;;10.32;2.40;;;0.20;99.90;;;;;;5026925;28;20059;-81
2023/04/03 03:50:22;;;;;;;11.27;2.40;;;0.20;99.90;;;;;;5046720;28;20040;-81
2023/04/03 03:52:48;;;;;;;8.07;2.30;;;0.10;99.90;;;;;;5046103;28;20119;-81
2023/04/03 03:55:14;;;;;;;8.70;2.15;;;0.10;99.90;;;;;;5046077;28;20517;-81
2023/04/03 03:57:40;;;;;;;8.73;2.05;;;0.10;99.90;;;;;;5061164;28;20047;-81
2023/04/03 04:00:07;;;;;;;10.68;2.65;;;0.10;99.90;;;;;;5028082;28;20041;-80
2023/04/03 04:02:33;;;;;;;9.45;2.33;;;0.10;99.90;;;;;;5028024;28;20041;-81
2023/04/03 04:04:58;;;;;;;9.10;2.65;;;0.80;99.90;;;;;;5043796;28;20481;-80
2023/04/03 04:07:24;;;;;;;11.23;2.35;;;0.10;99.90;;;;;;5046897;28;20111;-80
2023/04/03 04:09:50;;;;;;;8.93;2.40;;;0.10;99.90;;;;;;5046423;28;20402;-81
2023/04/03 04:12:15;;;;;;;9.07;2.47;;;0.10;99.90;;;;;;5028943;28;20427;-81
2023/04/03 04:14:41;;;;;;;10.18;2.67;;;0.00;99.90;;;;;;5044397;28;20171;-81
2023/04/03 04:17:07;;;;;;;8.48;2.65;;;0.00;99.90;;;;;;5060407;28;20127;-81
2023/04/03 04:19:33;;;;;;;11.68;2.40;;;1.20;99.90;;;;;;5026992;28;20036;-81
2023/04/03 04:21:58;;;;;;;10.10;2.63;;;0.00;99.90;;;;;;5063303;28;20040;-81
2023/04/03 04:24:24;;;;;;;9.65;2.88;;;0.10;99.90;;;;;;5043949;28;20378;-81
2023/04/03 04:26:50;;;;;;;8.90;2.60;;;0.00;99.90;;;;;;5061483;28;20493;-81
2023/04/03 04:29:16;;;;;;;10.13;2.70;;;1.70;99.90;;;;;;5063038;28;20203;-81
2023/04/03 04:31:42;;;;;;;8.50;2.50;;;0.00;99.90;;;;;;5060898;28;20064;-81
2023/04/03 04:34:07;;;;;;;11.27;2.78;;;0.00;99.90;;;;;;5061451;28;20051;-81
2023/04/03 04:36:33;;;;;;;9.60;2.42;;;0.00;99.90;;;;;;5028395;28;20734;-81
2023/04/03 04:38:59;;;;;;;10.48;2.65;;;0.00;99.90;;;;;;5043547;28;20431;-81
2023/04/03 04:41:25;;;;;;;9.52;2.58;;;0.00;99.90;;;;;;5041822;28;20121;-81
2023/04/03 04:43:51;;;;;;;10.27;2.60;;;-0.10;99.90;;;;;;5043843;28;20082;-81
2023/04/03 04:46:17;;;;;;;14.40;3.03;;;1.30;99.90;;;;;;5042410;28;20045;-81
2023/04/03 04:48:44;;;;;;;10.63;3.05;;;1.00;99.90;;;;;;5058390;28;20048;-81
2023/04/03 04:51:10;;;;;;;9.95;3.00;;;-0.10;99.90;;;;;;5061146;28;20041;-80
2023/04/03 04:53:36;;;;;;;7.72;2.60;;;-0.20;99.90;;;;;;5063084;28;20044;-80
2023/04/03 04:56:02;;;;;;;10.93;2.50;;;-0.20;99.90;;;;;;5060578;28;20123;-80
2023/04/03 04:58:27;;;;;;;10.10;2.78;;;-0.20;99.90;;;;;;5061563;28;20873;-80
2023/04/03 05:01:07;;;;;;;9.57;2.70;;;0.10;99.90;;;;;;5062164;28;20115;-80
2023/04/03 05:03:33;;;;;;;9.13;2.72;;;-0.20;99.90;;;;;;5064024;28;20048;-79
2023/04/03 05:05:59;;;;;;;10.45;2.65;;;-0.20;99.90;;;;;;5065848;28;20041;-80
2023/04/03 05:08:25;;;;;;;10.27;2.90;;;-0.20;99.90;;;;;;5062551;28;20106;-79
2023/04/03 05:10:51;;;;;;;10.65;2.72;;;-0.20;99.90;;;;;;5031594;28;20028;-80
2023/04/03 05:13:17;;;;;;;9.75;2.70;;;-0.20;99.90;;;;;;5066718;28;20414;-80
2023/04/03 05:15:43;;;;;;;9.50;2.72;;;0.00;99.90;;;;;;5062638;28;20055;-79
2023/04/03 05:18:08;;;;;;;9.65;2.33;;;-0.30;99.90;;;;;;5048488;28;20393;-79
2023/04/03 05:20:34;;;;;;;9.20;2.83;;;0.50;99.90;;;;;;5029001;28;20079;-79
2023/04/03 05:23:00;;;;;;;10.15;2.60;;;-0.30;99.90;;;;;;5048976;28;20402;-79
2023/04/03 05:25:26;;;;;;;8.43;2.38;;;0.70;99.90;;;;;;5046466;28;20057;-79
2023/04/03 05:27:52;;;;;;;11.07;2.90;;;-0.30;99.90;;;;;;5045464;28;20045;-79
2023/04/03 05:30:18;;;;;;;10.82;2.63;;;-0.30;99.90;;;;;;5062595;28;20048;-80
2023/04/03 05:32:44;;;;;;;8.00;2.40;;;-0.30;99.90;;;;;;5047311;28;20565;-80
2023/04/03 05:35:10;;;;;;;10.32;3.35;;;-0.30;99.90;;;;;;5070020;28;20522;-80
2023/04/03 05:37:36;;;;;;;10.43;2.58;;;-0.30;99.90;;;;;;5061860;28;20517;-80
2023/04/03 05:40:04;;;;;;;8.65;2.50;;;0.30;99.90;;;;;;5050800;28;20095;-80
2023/04/03 05:42:30;;;;;;;10.60;2.83;;;-0.20;99.90;;;;;;5050451;28;20063;-80
2023/04/03 05:44:56;;;;;;;8.45;2.72;;;-0.10;99.90;;;;;;5034012;28;20052;-80
2023/04/03 05:47:22;;;;;;;9.98;2.78;;;-0.10;99.90;;;;;;5046005;28;20120;-80
2023/04/03 05:49:48;;;;;;;8.57;2.65;;;0.00;99.90;;;;;;5070440;28;20047;-80
2023/04/03 05:52:20;;;;;;;10.35;3.03;;;0.50;99.90;;;;;;5070488;28;20119;-80
2023/04/03 05:54:47;;;;;;;8.80;2.60;;;1.40;99.90;;;;;;5074553;28;20089;-80
2023/04/03 05:57:17;;;;;;;10.40;2.92;;;0.20;99.90;;;;;;5050751;28;20539;-80
2023/04/03 05:59:45;;;;;;;12.73;3.20;;;0.20;99.90;;;;;;5059448;28;20045;-81
2023/04/03 06:02:16;;;;;;;9.48;2.78;;;2.00;99.90;;;;;;5050932;28;20365;-81
2023/04/03 06:04:42;;;;;;;11.95;3.45;;;0.40;99.90;;;;;;5049748;28;20398;-81
2023/04/03 06:07:12;;;;;;;9.90;3.00;;;0.80;99.90;;;;;;5017318;28;20045;-81
2023/04/03 06:09:37;;;;;;;13.38;3.45;;;0.60;99.90;;;;;;5057676;28;20051;-81
2023/04/03 06:12:03;;;;;;;11.30;2.83;;;0.70;99.90;;;;;;5050027;28;20418;-81
2023/04/03 06:14:29;;;;;;;10.02;3.10;;;0.70;99.90;;;;;;5034018;28;20079;-79
2023/04/03 06:16:55;;;;;;;12.00;3.10;;;0.80;99.90;;;;;;5033304;28;20525;-80
2023/04/03 06:19:21;;;;;;;12.02;3.28;;;1.00;99.90;;;;;;5046973;28;20139;-80
2023/04/03 06:21:47;;;;;;;9.98;2.90;;;1.80;99.90;;;;;;5052957;28;20040;-81
2023/04/03 06:24:15;;;;;;;9.73;2.90;;;2.50;99.90;;;;;;5069890;28;20040;-80
2023/04/03 06:26:41;;;;;;;9.55;2.83;;;3.00;99.90;;;;;;5069769;28;20048;-80
2023/04/03 06:29:08;;;;;;;9.60;2.90;;;1.40;99.90;;;;;;5068935;28;20048;-80
2023/04/03 06:31:36;;;;;;;11.13;3.20;;;1.50;99.90;;;;;;5069531;28;20044;-80
2023/04/03 06:34:02;;;;;;;11.85;2.95;;;2.60;99.90;;;;;;5053388;28;20044;-80
2023/04/03 06:36:28;;;;;;;10.52;2.97;;;3.20;99.90;;;;;;5052985;28;20076;-80
2023/04/03 06:38:54;;;;;;;10.25;2.95;;;1.70;99.90;;;;;;5051671;28;20498;-80
2023/04/03 06:41:21;;;;;;;8.50;2.70;;;2.50;99.90;;;;;;5069086;28;20120;-80
2023/04/03 06:43:47;;;;;;;11.60;3.08;;;1.90;99.90;;;;;;5052916;28;20055;-80
2023/04/03 06:46:17;;;;;;;10.80;3.03;;;3.70;99.90;;;;;;5069288;28;20044;-80
2023/04/03 06:48:43;;;;;;;8.80;2.67;;;2.10;99.90;;;;;;5053041;28;20095;-81
2023/04/03 06:51:23;;;;;;;11.98;2.90;;;3.20;99.90;;;;;;5068488;28;20055;-80
2023/04/03 06:53:51;;;;;;;12.07;2.90;;;2.30;99.90;;;;;;5051952;28;20037;-81
2023/04/03 06:56:17;;;;;;;12.88;3.10;;;2.90;99.90;;;;;;5051847;28;20119;-82
2023/04/03 06:58:44;;;;;;;8.82;2.90;;;2.90;99.90;;;;;;5069152;28;20044;-81
2023/04/03 07:01:11;;;;;;;11.48;3.53;;;3.20;99.90;;;;;;5067221;28;20053;-81
2023/04/03 07:03:38;;;;;;;12.55;3.33;;;2.70;99.90;;;;;;5042117;28;20111;-81
2023/04/03 07:06:05;;;;;;;8.48;2.90;;;4.00;99.90;;;;;;5048829;28;20507;-81
2023/04/03 07:08:31;;;;;;;9.80;3.00;;;2.80;99.90;;;;;;5032606;28;20040;-81
2023/04/03 07:10:57;;;;;;;10.00;3.10;;;3.40;99.90;;;;;;5057479;28;20051;-80
2023/04/03 07:13:23;;;;;;;11.35;2.92;;;3.00;99.90;;;;;;5035948;28;20041;-81
2023/04/03 07:15:48;;;;;;;14.27;3.33;;;3.10;99.90;;;;;;5031903;28;20044;-81
2023/04/03 07:18:15;;;;;;;11.57;3.00;;;3.80;99.90;;;;;;5033159;28;20175;-81
2023/04/03 07:20:41;;;;;;;9.95;3.15;;;3.70;99.90;;;;;;5015372;28;20052;-81
2023/04/03 07:23:08;;;;;;;10.55;2.90;;;3.40;99.90;;;;;;5049678;28;20044;-81
2023/04/03 07:25:34;;;;;;;9.93;2.80;;;3.40;99.90;;;;;;5051797;28;20084;-81
2023/04/03 07:28:00;;;;;;;11.55;3.20;;;4.20;99.90;;;;;;5052376;28;20462;-81
2023/04/03 07:30:26;;;;;;;9.82;3.03;;;3.60;99.90;;;;;;5035134;28;20124;-81
2023/04/03 07:32:52;;;;;;;8.93;2.63;;;4.00;99.90;;;;;;5033804;28;20123;-81
2023/04/03 07:35:18;;;;;;;9.98;2.78;;;5.30;99.90;;;;;;5032930;28;20070;-81
2023/04/03 07:37:44;;;;;;;9.20;2.80;;;3.90;99.90;;;;;;5048551;28;20045;-81
2023/04/03 07:40:10;;;;;;;9.88;3.00;;;4.30;99.90;;;;;;5031931;28;20049;-81
2023/04/03 07:42:36;;;;;;;10.25;2.67;;;4.10;99.90;;;;;;5019159;28;20039;-81
2023/04/03 07:45:03;;;;;;;10.95;3.30;;;4.10;99.90;;;;;;5051884;28;20094;-81
2023/04/03 07:47:29;;;;;;;9.55;3.30;;;4.20;99.90;;;;;;5068241;28;20044;-81
2023/04/03 07:49:57;;;;;;;10.98;3.25;;;4.80;99.90;;;;;;5068245;28;20123;-81
2023/04/03 07:52:23;;;;;;;10.95;2.97;;;4.30;99.90;;;;;;5051969;28;20137;-81
2023/04/03 07:54:49;;;;;;;9.13;2.90;;;4.70;99.90;;;;;;5063748;28;20112;-81
2023/04/03 07:57:15;;;;;;;9.55;2.67;;;4.70;99.90;;;;;;5034791;28;20140;-81
2023/04/03 07:59:42;;;;;;;12.55;2.97;;;4.40;99.90;;;;;;5053576;28;20047;-81
2023/04/03 08:02:11;;;;;;;9.90;2.85;;;4.50;99.90;;;;;;5047790;28;20037;-81
2023/04/03 08:04:37;;;;;;;10.07;3.22;;;5.00;99.90;;;;;;5043128;28;20051;-80
2023/04/03 08:07:03;;;;;;;12.38;2.97;;;4.70;99.90;;;;;;5051390;28;20103;-81
2023/04/03 08:09:28;;;;;;;12.52;3.17;;;4.80;99.90;;;;;;5051295;28;20504;-81
2023/04/03 08:11:54;;;;;;;10.13;2.70;;;5.60;99.90;;;;;;5028813;28;20037;-81
2023/04/03 08:14:20;;;;;;;10.05;3.00;;;5.30;99.90;;;;;;5052640;28;20036;-81
2023/04/03 08:16:47;;;;;;;11.35;2.92;;;5.20;99.90;;;;;;5067601;28;20043;-81
2023/04/03 08:19:15;;;;;;;9.38;2.65;;;5.30;99.90;;;;;;5051597;28;20402;-81
2023/04/03 08:21:41;;;;;;;8.07;2.15;;;5.40;99.90;;;;;;5067547;28;20134;-81
2023/04/03 08:24:08;;;;;;;9.63;2.53;;;5.50;99.90;;;;;;5051016;28;20086;-80
2023/04/03 08:26:34;;;;;;;7.60;2.13;;;5.60;99.90;;;;;;5049983;28;20061;-81
2023/04/03 08:29:00;;;;;;;8.35;2.15;;;5.60;99.90;;;;;;5030867;28;20122;-80
2023/04/03 08:31:26;;;;;;;8.27;2.20;;;5.80;99.90;;;;;;5047597;28;20492;-80
2023/04/03 08:33:52;;;;;;;8.23;2.35;;;6.10;99.90;;;;;;5014995;28;20037;-81
2023/04/03 08:36:24;;;;;;;7.43;2.13;;;5.90;99.90;;;;;;5056936;28;20044;-81
2023/04/03 08:38:51;;;;;;;7.22;2.28;;;6.00;99.90;;;;;;5031036;28;20099;-81
2023/04/03 08:41:38;;;;;;;8.57;2.47;;;6.00;99.90;;;;;;5047492;28;20254;-81
2023/04/03 08:44:25;;;;;;;6.82;1.80;;;6.10;99.90;;;;;;5047473;28;20103;-81
2023/04/03 08:47:10;;;;;;;6.22;1.80;;;6.20;99.90;;;;;;5058639;28;20075;-81
2023/04/03 08:49:51;;;;;;;7.68;1.90;;;6.30;99.90;;;;;;5050564;28;20040;-80
2023/04/03 08:52:51;;;;;;;6.93;1.90;;;6.50;99.90;;;;;;5050984;28;20040;-80
2023/04/03 08:55:23;;;;;;;9.57;2.35;;;6.50;99.90;;;;;;5065227;28;20052;-80
2023/04/03 08:57:54;;;;;;;9.02;2.20;;;6.60;99.90;;;;;;5049480;28;20073;-80
2023/04/03 09:00:25;;;;;;;7.47;1.92;;;6.70;99.90;;;;;;5030535;28;20084;-81
2023/04/03 09:02:55;;;;;;;6.32;1.80;;;6.80;99.90;;;;;;5030933;28;20041;-80
2023/04/03 09:05:43;;;;;;;5.10;1.73;;;6.90;99.90;;;;;;5047608;28;20124;-80
2023/04/03 09:08:32;;;;;;;7.93;2.10;;;6.90;99.90;;;;;;5043744;28;20044;-80
2023/04/03 09:11:24;;;;;;;7.65;2.00;;;7.00;99.90;;;;;;5050504;28;20048;-80
2023/04/03 09:13:55;;;;;;;7.28;1.90;;;7.30;99.90;;;;;;5037006;28;20156;-81
2023/04/03 09:16:50;;;;;;;7.75;2.05;;;7.00;99.90;;;;;;5046786;28;20052;-81
2023/04/03 09:19:32;;;;;;;6.63;1.98;;;6.90;99.90;;;;;;5064896;28;20130;-80
2023/04/03 09:22:23;;;;;;;7.90;1.90;;;7.00;99.90;;;;;;5067003;28;20044;-80
2023/04/03 09:24:58;;;;;;;6.03;1.95;;;7.10;99.90;;;;;;5063994;28;20045;-81
2023/04/03 09:27:24;;;;;;;6.75;1.90;;;7.20;99.90;;;;;;5066744;28;20118;-81
2023/04/03 09:29:56;;;;;;;6.47;1.90;;;7.30;99.90;;;;;;5016352;28;20387;-81
2023/04/03 09:32:26;;;;;;;6.28;1.60;;;7.40;99.90;;;;;;5066999;28;20048;-81
2023/04/03 09:34:54;;;;;;;7.10;2.00;;;7.40;99.90;;;;;;5067416;28;20037;-81
2023/04/03 09:37:38;;;;;;;6.85;1.90;;;7.40;99.90;;;;;;5034109;28;20048;-81
2023/04/03 09:40:04;;;;;;;6.72;1.70;;;7.50;99.90;;;;;;5067667;28;20052;-81
2023/04/03 09:42:31;;;;;;;6.53;1.80;;;7.50;99.90;;;;;;5040355;28;20041;-81
2023/04/03 09:45:04;;;;;;;7.80;1.90;;;7.60;99.90;;;;;;5050903;28;20045;-81
2023/04/03 09:47:30;;;;;;;6.43;1.70;;;7.60;99.90;;;;;;5050785;28;20449;-81
2023/04/03 09:50:14;;;;;;;6.38;1.75;;;7.60;99.90;;;;;;5060450;28;20123;-80
2023/04/03 09:52:42;;;;;;;8.77;1.92;;;7.60;99.90;;;;;;5070397;28;20206;-80
2023/04/03 09:55:26;;;;;;;6.18;2.00;;;7.70;99.90;;;;;;5070299;28;20065;-80
2023/04/03 09:57:57;;;;;;;7.20;1.85;;;7.80;99.90;;;;;;5053904;28;20047;-80
2023/04/03 10:00:41;;;;;;;6.25;1.90;;;7.70;99.90;;;;;;5069065;28;20044;-80
2023/04/03 10:03:32;;;;;;;6.75;1.80;;;7.80;99.90;;;;;;5063464;28;20118;-80
2023/04/03 10:05:58;;;;;;;7.60;1.88;;;8.00;99.90;;;;;;5050119;28;20037;-80
2023/04/03 10:08:26;;;;;;;6.25;1.75;;;8.10;99.90;;;;;;5050855;28;20072;-80
2023/04/03 10:11:14;;;;;;;6.00;1.70;;;8.20;99.90;;;;;;5064291;28;20033;-80
2023/04/03 10:13:53;;;;;;;5.80;1.65;;;8.20;99.90;;;;;;5053607;28;20289;-80
2023/04/03 10:16:45;;;;;;;4.63;1.40;;;8.30;99.90;;;;;;5069890;28;20177;-81
2023/04/03 10:19:35;;;;;;;7.88;1.73;;;8.30;99.90;;;;;;5069167;28;20082;-80
2023/04/03 10:22:12;;;;;;;4.75;1.60;;;8.30;99.90;;;;;;5069002;28;20040;-80
2023/04/03 10:25:04;;;;;;;5.95;1.70;;;8.40;99.90;;;;;;5047535;28;20037;-80
2023/04/03 10:27:39;;;;;;;5.93;1.50;;;8.40;99.90;;;;;;5052648;28;20052;-80
2023/04/03 10:30:22;;;;;;;6.68;1.60;;;8.50;99.90;;;;;;5070211;28;20128;-80
2023/04/03 10:32:58;;;;;;;5.45;1.63;;;8.60;99.90;;;;;;5053243;28;20041;-80
2023/04/03 10:36:01;;;;;;;3.35;1.40;;;8.70;99.90;;;;;;5051306;28;20036;-80
2023/04/03 10:38:39;;;;;;;7.03;1.60;;;8.70;99.90;;;;;;5069766;28;20498;-80
2023/04/03 10:41:14;;;;;;;6.35;1.60;;;8.70;99.90;;;;;;5069390;28;20147;-80
2023/04/03 10:43:53;;;;;;;6.82;1.85;;;8.60;99.90;;;;;;5056707;28;20040;-80
2023/04/03 10:46:31;;;;;;;6.35;1.60;;;8.50;99.90;;;;;;5039723;28;20191;-80
2023/04/03 10:49:20;;;;;;;7.28;1.52;;;8.60;99.90;;;;;;5052977;28;20068;-80
2023/04/03 10:52:15;;;;;;;4.78;1.50;;;8.60;99.90;;;;;;5068829;28;20531;-80
2023/04/03 10:54:54;;;;;;;8.50;1.50;;;8.70;99.90;;;;;;5043037;28;20037;-80
2023/04/03 10:57:24;;;;;;;4.88;1.40;;;8.90;99.90;;;;;;5064564;28;20037;-81
2023/04/03 10:59:56;;;;;;;4.50;1.33;;;9.00;99.90;;;;;;5052565;28;20048;-80
2023/04/03 11:02:31;;;;;;;4.43;1.30;;;9.00;99.90;;;;;;5052624;28;20112;-80
2023/04/03 11:05:09;;;;;;;3.95;1.20;;;8.90;99.90;;;;;;5067236;28;20075;-80
2023/04/03 11:07:40;;;;;;;5.72;1.42;;;8.80;99.90;;;;;;5051344;28;20033;-81
2023/04/03 11:10:19;;;;;;;3.67;1.38;;;8.70;99.90;;;;;;5060741;28;20386;-80
2023/04/03 11:12:59;;;;;;;4.05;1.30;;;8.80;99.90;;;;;;5068999;28;20418;-80
2023/04/03 11:15:30;;;;;;;5.05;1.40;;;8.80;99.90;;;;;;5050242;28;20521;-80
2023/04/03 11:18:06;;;;;;;3.90;1.40;;;8.80;99.90;;;;;;5032427;28;20545;-80
2023/04/03 11:20:34;;;;;;;4.07;1.60;;;8.80;99.90;;;;;;5048724;28;20037;-80
2023/04/03 11:23:05;;;;;;;5.85;1.70;;;8.90;99.90;;;;;;5049133;28;20406;-80
2023/04/03 11:25:34;;;;;;;3.90;1.30;;;9.00;99.90;;;;;;5048519;28;20048;-80
2023/04/03 11:28:03;;;;;;;4.38;1.42;;;9.00;99.90;;;;;;5033237;28;20051;-80
2023/04/03 11:30:48;;;;;;;6.30;1.50;;;9.00;99.90;;;;;;5048359;28;20116;-80
2023/04/03 11:33:51;;;;;;;3.90;1.25;;;9.00;99.90;;;;;;5049177;28;20396;-80
2023/04/03 11:36:40;;;;;;;8.02;1.80;;;9.00;99.90;;;;;;5056580;28;20040;-80
2023/04/03 11:39:26;;;;;;;4.05;1.25;;;9.00;99.90;;;;;;5051685;28;20556;-80
2023/04/03 11:41:52;;;;;;;4.50;1.35;;;9.00;99.90;;;;;;5055545;28;20494;-80
2023/04/03 11:44:36;;;;;;;4.57;1.50;;;9.00;99.90;;;;;;5048581;28;20095;-80
2023/04/03 11:47:03;;;;;;;5.38;1.42;;;9.10;99.90;;;;;;5048111;28;20048;-80
2023/04/03 11:50:00;;;;;;;5.28;1.50;;;9.20;99.90;;;;;;5048331;28;20052;-80
2023/04/03 11:52:38;;;;;;;5.07;1.42;;;9.30;99.90;;;;;;5081551;28;20557;-80
2023/04/03 11:55:22;;;;;;;5.70;1.33;;;9.40;99.90;;;;;;5039297;28;20052;-80
2023/04/03 11:57:57;;;;;;;4.53;1.55;;;9.40;99.90;;;;;;5039337;28;20534;-80
2023/04/03 12:00:51;;;;;;;6.18;1.60;;;9.40;99.90;;;;;;5067966;28;20120;-80
2023/04/03 12:03:28;;;;;;;4.97;1.48;;;9.30;99.80;;;;;;5043991;28;20218;-80
2023/04/03 12:06:06;;;;;;;5.28;1.60;;;9.30;99.90;;;;;;5045310;28;20051;-80
2023/04/03 12:08:41;;;;;;;7.05;1.40;;;9.20;99.50;;;;;;5049222;28;20115;-80
2023/04/03 12:11:13;;;;;;;3.67;1.27;;;9.20;99.90;;;;;;5048515;28;20363;-80
2023/04/03 12:13:53;;;;;;;4.60;1.40;;;9.30;99.90;;;;;;5031986;28;20376;-80
2023/04/03 12:16:29;;;;;;;5.03;1.60;;;9.30;99.90;;;;;;5061092;28;20521;-80
2023/04/03 12:19:02;;;;;;;6.95;1.60;;;9.40;99.60;;;;;;5068131;28;20398;-80
2023/04/03 12:21:33;;;;;;;5.65;1.60;;;9.40;99.20;;;;;;5068052;28;20044;-80
2023/04/03 12:24:08;;;;;;;6.55;1.75;;;9.30;99.40;;;;;;5067996;28;20032;-80
2023/04/03 12:26:50;;;;;;;5.65;1.48;;;9.30;99.40;;;;;;5067327;28;20067;-80
2023/04/03 12:29:34;;;;;;;6.70;1.55;;;9.20;98.90;;;;;;5066654;28;20052;-80
2023/04/03 12:32:07;;;;;;;4.60;1.70;;;9.30;97.70;;;;;;5067556;28;20102;-80
2023/04/03 12:34:36;;;;;;;5.57;1.50;;;9.30;99.00;;;;;;5067978;28;20661;-80
2023/04/03 12:37:39;;;;;;;4.88;1.60;;;9.30;99.30;;;;;;5050764;28;20444;-80
2023/04/03 12:40:24;;;;;;;;;;;9.30;97.80;;;;;;5061125;28;20568;-80
2023/04/03 12:43:04;;;;;;;5.72;1.50;;;9.20;97.10;;;;;;5056520;28;19967;-80
2023/04/03 12:45:40;;;;;;;4.72;1.50;;;9.30;99.40;;;;;;5047677;28;20462;-80
2023/04/03 12:48:22;;;;;;;4.97;1.65;;;9.40;99.00;;;;;;5047918;28;20132;-80
2023/04/03 12:50:49;;;;;;;5.95;1.70;;;9.50;99.20;;;;;;5054100;28;20143;-80
2023/04/03 12:53:23;;;;;;;4.47;1.42;;;9.60;99.50;;;;;;5068025;28;20051;-80
2023/04/03 12:55:54;;;;;;;3.63;1.30;;;9.70;99.40;;;;;;5050806;28;20537;-80
2023/04/03 12:58:28;;;;;;;3.92;1.35;;;9.60;98.80;;;;;;5050593;28;20505;-80
2023/04/03 13:01:14;;;;;;;5.82;1.67;;;9.60;98.40;;;;;;5067652;28;20044;-80
2023/04/03 13:03:43;;;;;;;4.15;1.33;;;9.60;97.90;;;;;;5032439;28;20092;-80
2023/04/03 13:06:22;;;;;;;5.65;1.40;;;9.50;98.00;;;;;;5030565;28;20037;-80
2023/04/03 13:08:54;;;;;;;3.90;1.50;;;9.40;97.00;;;;;;5047353;28;20230;-80
2023/04/03 13:11:21;;;;;;;3.75;1.30;;;9.50;98.30;;;;;;5031093;28;20194;-80
2023/04/03 13:13:59;;;;;;;4.28;1.30;;;9.50;97.90;;;;;;5064950;28;20452;-80